Time;durP1;ratioP1;P1;durP2;ratioP2;P2;SDS_P1;SDS_P2;PMS_P1;PMS_P2;Temp;Humidity;BMP_temperature;BMP_pressure;BME280_temperature;BME280_humidity;BME280_pressure;Samples;Min_cycle;Max_cycle;Signal;HPM_P1;HPM_P2
2022/06/15 00:01:31;;;;;;;8.53;2.80;;;;;;;16.49;69.51;96341.16;5002196;28;20034;-79
2022/06/15 00:04:00;;;;;;;9.30;2.83;;;;;;;16.42;71.32;96333.13;4999011;28;20038;-78
2022/06/15 00:06:29;;;;;;;7.53;3.33;;;;;;;16.41;71.32;96330.69;4995401;28;20031;-78
2022/06/15 00:08:57;;;;;;;6.83;2.70;;;;;;;16.39;71.10;96319.44;5001262;28;20074;-80
2022/06/15 00:11:26;;;;;;;7.33;3.23;;;;;;;16.46;69.91;96322.94;4999678;28;20034;-78
2022/06/15 00:13:53;;;;;;;7.67;3.20;;;;;;;16.40;70.38;96329.06;4984713;28;20293;-80
2022/06/15 00:16:20;;;;;;;6.80;2.80;;;;;;;16.41;70.50;96330.69;4978277;28;20038;-78
2022/06/15 00:18:46;;;;;;;6.70;3.03;;;;;;;16.36;70.87;96327.78;5000096;28;20430;-78
2022/06/15 00:21:14;;;;;;;5.80;2.80;;;;;;;16.33;71.35;96334.31;4999372;28;20030;-80
2022/06/15 00:23:40;;;;;;;10.60;3.50;;;;;;;16.37;71.14;96329.44;4986419;28;20034;-77
2022/06/15 00:26:07;;;;;;;8.37;3.60;;;;;;;16.29;71.25;96325.06;5019003;28;20283;-80
2022/06/15 00:28:34;;;;;;;10.50;3.60;;;;;;;16.34;71.52;96335.94;4983609;28;20038;-79
2022/06/15 00:31:00;;;;;;;7.47;3.03;;;;;;;16.32;71.86;96331.84;5000111;28;20031;-80
2022/06/15 00:33:27;;;;;;;9.90;3.10;;;;;;;16.36;71.34;96333.09;4996480;28;20042;-80
2022/06/15 00:35:59;;;;;;;10.13;3.00;;;;;;;16.37;71.70;96332.91;4993789;28;20054;-77
2022/06/15 00:38:29;;;;;;;7.50;2.87;;;;;;;16.36;71.73;96335.75;5002032;28;20030;-78
2022/06/15 00:40:55;;;;;;;7.73;3.37;;;;;;;16.41;70.87;96331.50;4980139;28;20034;-79
2022/06/15 00:43:54;;;;;;;9.53;3.13;;;;;;;16.36;71.75;96331.25;4998931;28;20034;-78
2022/06/15 00:46:26;;;;;;;7.83;3.20;;;;;;;16.26;72.72;96330.75;4995061;28;20042;-79
2022/06/15 00:49:04;;;;;;;6.57;3.23;;;;;;;16.34;72.49;96329.81;4998675;28;20755;-79
2022/06/15 00:51:30;;;;;;;8.20;3.60;;;;;;;16.30;73.12;96329.38;4993870;28;20031;-78
2022/06/15 00:53:59;;;;;;;8.07;3.37;;;;;;;16.33;73.02;96328.16;4977928;28;20038;-79
2022/06/15 00:56:27;;;;;;;7.10;3.23;;;;;;;16.31;73.87;96325.72;5000178;28;20026;-79
2022/06/15 00:58:58;;;;;;;6.13;3.00;;;;;;;16.36;73.56;96333.09;4995174;28;20034;-80
2022/06/15 01:01:25;;;;;;;7.40;3.40;;;;;;;16.34;73.51;96320.03;4976725;28;20145;-80
2022/06/15 01:03:53;;;;;;;8.00;2.83;;;;;;;16.29;74.20;96321.59;4995759;28;20034;-79
2022/06/15 01:06:22;;;;;;;8.03;2.97;;;;;;;16.19;75.66;96316.63;4999121;28;20049;-80
2022/06/15 01:08:51;;;;;;;8.73;2.90;;;;;;;16.21;75.82;96318.09;4991675;28;20046;-80
2022/06/15 01:11:20;;;;;;;6.90;3.60;;;;;;;16.17;76.92;96316.84;4999442;28;20073;-79
2022/06/15 01:13:58;;;;;;;6.93;3.30;;;;;;;16.13;76.98;96328.84;4997817;28;20057;-80
2022/06/15 01:16:53;;;;;;;9.17;3.57;;;;;;;16.08;77.61;96320.63;4978015;28;20058;-79
2022/06/15 01:19:56;;;;;;;8.97;3.80;;;;;;;16.09;77.59;96316.13;4970652;28;20096;-78
2022/06/15 01:22:48;;;;;;;8.25;3.53;;;;;;;16.12;77.67;96316.56;5008575;28;20038;-80
2022/06/15 01:25:14;;;;;;;6.73;3.20;;;;;;;16.10;78.17;96310.66;4990926;28;20104;-79
2022/06/15 01:28:07;;;;;;;7.33;3.37;;;;;;;16.10;78.13;96313.31;4996574;28;20042;-79
2022/06/15 01:31:00;;;;;;;6.57;3.30;;;;;;;16.12;78.53;96310.44;4978918;28;20106;-80
2022/06/15 01:33:43;;;;;;;9.40;3.72;;;;;;;16.22;77.76;96305.63;5005235;28;20038;-77
2022/06/15 01:36:13;;;;;;;;;;;;;;;16.14;78.38;96297.81;4996015;28;20042;-78
2022/06/15 01:39:04;;;;;;;6.77;3.10;;;;;;;16.18;78.45;96299.06;5004473;28;19973;-78
2022/06/15 01:41:36;;;;;;;8.13;3.40;;;;;;;16.18;78.79;96301.72;5004808;28;20026;-78
2022/06/15 01:44:13;;;;;;;8.20;3.67;;;;;;;16.16;78.80;96299.28;4979971;28;20046;-79
2022/06/15 01:46:43;;;;;;;12.90;4.03;;;;;;;16.23;78.64;96307.25;4989585;28;20464;-80
2022/06/15 01:49:17;;;;;;;7.13;3.20;;;;;;;16.23;78.64;96313.41;4982496;28;20046;-77
2022/06/15 01:51:48;;;;;;;7.17;3.50;;;;;;;16.30;78.29;96296.69;4996121;28;20145;-78
2022/06/15 01:54:36;;;;;;;7.10;3.77;;;;;;;16.24;78.02;96306.28;4998598;28;20034;-78
2022/06/15 01:57:07;;;;;;;6.80;3.33;;;;;;;16.24;78.67;96301.78;4978843;28;20100;-80
2022/06/15 01:59:43;;;;;;;7.77;3.50;;;;;;;16.24;78.71;96299.13;4993075;28;20093;-79
2022/06/15 02:02:34;;;;;;;8.20;3.20;;;;;;;16.23;78.64;96288.69;4989531;28;20037;-80
2022/06/15 02:05:08;;;;;;;6.80;3.80;;;;;;;16.28;78.99;96286.28;4980321;28;20038;-80
2022/06/15 02:07:50;;;;;;;9.83;4.23;;;;;;;16.24;79.02;96280.56;4990925;28;20117;-80
2022/06/15 02:10:29;;;;;;;7.57;3.80;;;;;;;16.17;79.69;96287.66;4991150;28;20038;-80
2022/06/15 02:13:14;;;;;;;11.60;4.73;;;;;;;16.13;80.41;96283.75;4995802;28;20030;-80
2022/06/15 02:15:48;;;;;;;8.10;3.60;;;;;;;16.09;80.87;96279.81;5001392;28;20042;-80
2022/06/15 02:18:18;;;;;;;9.63;3.90;;;;;;;16.00;81.70;96276.50;4996888;28;20026;-78
2022/06/15 02:20:52;;;;;;;9.67;3.90;;;;;;;16.06;81.81;96277.53;4990116;28;20033;-80
2022/06/15 02:23:20;;;;;;;8.37;3.87;;;;;;;16.00;82.31;96281.81;4991236;28;20622;-80
2022/06/15 02:25:49;;;;;;;9.23;3.10;;;;;;;16.01;82.44;96278.13;4992991;28;20042;-79
2022/06/15 02:28:17;;;;;;;9.10;3.80;;;;;;;16.08;82.28;96283.47;4989393;28;20027;-80
2022/06/15 02:30:45;;;;;;;8.67;3.57;;;;;;;15.98;83.13;96280.34;4969923;28;20038;-78
2022/06/15 02:33:25;;;;;;;8.47;4.27;;;;;;;16.01;82.93;96272.81;4992981;28;20023;-80
2022/06/15 02:35:53;;;;;;;7.37;3.83;;;;;;;15.92;83.86;96273.97;4977586;28;20097;-80
2022/06/15 02:38:19;;;;;;;4.90;3.60;;;;;;;15.90;84.51;96269.88;4977047;28;20030;-79
2022/06/15 02:40:46;;;;;;;10.33;4.37;;;;;;;15.91;84.76;96260.91;5008907;28;20544;-78
2022/06/15 02:43:19;;;;;;;8.97;4.50;;;;;;;15.82;85.48;96254.09;5005263;28;20038;-77
2022/06/15 02:45:49;;;;;;;8.03;4.23;;;;;;;15.81;85.77;96258.59;4992308;28;20065;-79
2022/06/15 02:48:20;;;;;;;9.43;3.90;;;;;;;15.82;85.60;96259.41;4995933;28;20044;-80
2022/06/15 02:50:54;;;;;;;9.20;4.10;;;;;;;15.84;85.66;96260.84;4995806;28;20349;-80
2022/06/15 02:53:23;;;;;;;;;;;;;;;15.79;86.66;96261.44;4974400;28;20038;-79
2022/06/15 02:55:51;;;;;;;8.10;3.93;;;;;;;15.86;85.93;96264.16;4995521;28;19914;-80
2022/06/15 02:58:27;;;;;;;6.23;3.50;;;;;;;15.79;86.35;96268.53;4996700;28;20050;-80
2022/06/15 03:00:56;;;;;;;6.93;3.60;;;;;;;15.76;87.10;96263.63;4996881;28;20125;-80
2022/06/15 03:03:26;;;;;;;8.97;4.07;;;;;;;15.74;87.00;96269.13;4993332;28;20125;-80
2022/06/15 03:06:02;;;;;;;7.70;3.70;;;;;;;15.76;87.32;96272.44;4991452;28;20034;-80
2022/06/15 03:08:28;;;;;;;8.33;4.07;;;;;;;15.65;88.43;96272.06;4975155;28;20061;-80
2022/06/15 03:11:02;;;;;;;7.87;3.93;;;;;;;15.65;88.39;96272.88;4970017;28;20860;-78
2022/06/15 03:13:27;;;;;;;13.53;4.33;;;;;;;15.63;88.74;96272.28;4968907;28;20031;-80
2022/06/15 03:16:00;;;;;;;9.33;3.93;;;;;;;15.64;88.58;96270.44;4990119;28;20031;-80
2022/06/15 03:18:27;;;;;;;8.23;4.00;;;;;;;15.63;88.38;96274.94;4978972;28;20061;-80
2022/06/15 03:21:00;;;;;;;8.10;4.50;;;;;;;15.56;89.37;96276.69;4990750;28;20046;-80
2022/06/15 03:23:27;;;;;;;6.80;4.00;;;;;;;15.57;90.00;96265.06;4989349;28;20547;-79
2022/06/15 03:25:55;;;;;;;7.13;3.97;;;;;;;15.49;90.45;96262.53;4993847;28;20026;-80
2022/06/15 03:28:21;;;;;;;7.20;3.93;;;;;;;15.60;88.93;96267.34;4998655;28;20038;-80
2022/06/15 03:30:48;;;;;;;7.00;3.60;;;;;;;15.60;89.02;96271.84;4987909;28;20065;-77
2022/06/15 03:33:14;;;;;;;11.40;4.70;;;;;;;15.61;89.19;96265.50;4981557;28;20256;-77
2022/06/15 03:35:43;;;;;;;9.70;4.13;;;;;;;15.65;88.54;96272.88;4994117;28;20030;-79
2022/06/15 03:38:15;;;;;;;9.07;4.60;;;;;;;15.60;89.65;96274.50;4981670;28;20029;-80
2022/06/15 03:40:48;;;;;;;9.68;4.30;;;;;;;15.61;89.14;96274.28;4977463;28;20504;-80
2022/06/15 03:43:15;;;;;;;11.23;4.20;;;;;;;15.61;89.38;96265.50;4982060;28;20034;-80
2022/06/15 03:45:42;;;;;;;8.80;3.70;;;;;;;15.67;88.37;96264.78;4994931;28;20783;-80
2022/06/15 03:48:10;;;;;;;7.00;4.00;;;;;;;15.68;89.19;96264.59;4998895;28;20050;-79
2022/06/15 03:50:37;;;;;;;14.57;4.00;;;;;;;15.74;88.27;96271.78;4992696;28;20045;-80
2022/06/15 03:53:04;;;;;;;9.17;3.87;;;;;;;15.76;87.40;96279.53;5003595;28;20084;-80
2022/06/15 03:55:36;;;;;;;7.17;4.07;;;;;;;15.77;87.90;96281.19;4993398;28;20030;-78
2022/06/15 03:58:12;;;;;;;8.73;3.80;;;;;;;15.76;87.68;96282.19;5009214;28;20030;-79
2022/06/15 04:00:38;;;;;;;9.23;3.77;;;;;;;15.77;88.02;96278.53;5004275;28;20114;-78
2022/06/15 04:03:11;;;;;;;9.82;3.60;;;;;;;15.75;88.84;96289.31;4988682;28;20042;-80
2022/06/15 04:06:09;;;;;;;5.90;3.70;;;;;;;15.66;89.64;96293.13;4985287;28;20051;-80
2022/06/15 04:08:39;;;;;;;9.57;3.90;;;;;;;15.60;90.69;96288.56;4990887;28;20106;-79
2022/06/15 04:14:04;;;;;;;7.93;3.40;;;;;;;15.66;91.14;96285.19;4998191;28;20042;-80
2022/06/15 04:16:31;;;;;;;12.07;4.37;;;;;;;15.59;92.02;96286.91;5000146;28;20042;-79
2022/06/15 04:19:02;;;;;;;7.40;3.67;;;;;;;15.71;91.62;96284.59;4976359;28;20109;-81
2022/06/15 04:21:29;;;;;;;8.73;3.50;;;;;;;15.68;91.68;96288.44;4987443;28;20049;-80
2022/06/15 04:23:56;;;;;;;7.83;4.33;;;;;;;15.69;92.05;96284.81;4991161;28;20022;-79
2022/06/15 04:26:22;;;;;;;9.37;3.70;;;;;;;15.72;92.86;96268.50;5001813;28;20149;-79
2022/06/15 04:28:49;;;;;;;9.50;4.20;;;;;;;15.75;93.28;96278.72;4998355;28;20038;-78
2022/06/15 04:31:22;;;;;;;8.30;4.22;;;;;;;15.77;93.71;96266.09;4973041;28;20038;-79
2022/06/15 04:33:48;;;;;;;7.00;3.40;;;;;;;15.76;94.04;96269.78;4974712;28;20117;-79
2022/06/15 04:36:15;;;;;;;6.37;3.70;;;;;;;15.85;92.82;96266.97;4975317;28;20035;-79
2022/06/15 04:38:45;;;;;;;7.00;4.20;;;;;;;15.85;93.83;96264.31;4990536;28;20153;-80
2022/06/15 04:41:12;;;;;;;7.30;3.80;;;;;;;15.81;94.01;96263.06;4983543;28;20052;-80
2022/06/15 04:43:38;;;;;;;8.00;4.20;;;;;;;16.01;92.26;96264.06;4996128;28;20114;-80
2022/06/15 04:46:10;;;;;;;8.05;3.65;;;;;;;15.99;92.03;96263.41;4998903;28;20042;-78
2022/06/15 04:48:36;;;;;;;7.73;4.00;;;;;;;16.16;90.44;96263.94;4991122;28;20039;-78
2022/06/15 04:51:12;;;;;;;6.43;3.83;;;;;;;16.20;90.95;96278.50;4988695;28;20096;-79
2022/06/15 04:53:41;;;;;;;9.63;3.90;;;;;;;16.35;89.56;96273.06;4984880;28;20775;-78
2022/06/15 04:56:07;;;;;;;7.93;3.63;;;;;;;16.40;86.86;96281.28;4994750;28;20030;-80
2022/06/15 04:58:33;;;;;;;7.93;3.60;;;;;;;16.38;87.96;96276.16;4992758;28;20034;-80
2022/06/15 05:01:00;;;;;;;10.27;3.87;;;;;;;16.46;88.55;96278.66;4976860;28;20022;-80
2022/06/15 05:03:26;;;;;;;6.70;3.63;;;;;;;16.46;88.45;96278.66;4982399;28;20126;-80
2022/06/15 05:05:56;;;;;;;7.27;3.63;;;;;;;16.63;88.21;96280.97;4999658;28;20085;-80
2022/06/15 05:08:24;;;;;;;8.87;3.93;;;;;;;16.77;87.21;96274.78;4981746;28;20113;-80
2022/06/15 05:10:51;;;;;;;13.73;4.60;;;;;;;16.91;85.31;96280.97;4985448;28;20463;-78
2022/06/15 05:13:18;;;;;;;6.63;3.60;;;;;;;16.97;85.27;96272.22;5001073;28;20034;-80
2022/06/15 05:15:48;;;;;;;6.60;3.40;;;;;;;17.09;82.95;96278.56;5000777;28;20057;-80
2022/06/15 05:18:14;;;;;;;6.03;3.90;;;;;;;17.35;83.55;96266.41;5000700;28;20053;-80
2022/06/15 05:20:41;;;;;;;7.83;3.57;;;;;;;17.48;82.65;96273.59;4988504;28;20026;-81
2022/06/15 05:23:15;;;;;;;8.18;3.38;;;;;;;17.57;79.34;96270.53;4995646;28;20048;-81
2022/06/15 05:26:01;;;;;;;8.73;3.47;;;;;;;17.89;82.56;96276.13;4999349;28;20038;-81
2022/06/15 05:28:29;;;;;;;8.82;4.45;;;;;;;18.04;80.46;96268.78;4982897;28;20053;-81
2022/06/15 05:31:09;;;;;;;6.70;3.15;;;;;;;18.21;76.27;96276.31;4997925;28;20038;-81
2022/06/15 05:33:40;;;;;;;8.63;4.22;;;;;;;18.47;76.06;96276.28;4993199;28;20030;-81
2022/06/15 05:36:14;;;;;;;8.07;3.13;;;;;;;18.66;71.60;96281.78;4979004;28;20963;-81
2022/06/15 05:38:40;;;;;;;6.15;3.13;;;;;;;18.96;70.70;96274.97;4993785;28;20038;-82
2022/06/15 05:41:08;;;;;;;8.32;3.83;;;;;;;19.11;73.28;96279.19;4996097;28;20490;-82
2022/06/15 05:43:36;;;;;;;7.60;3.42;;;;;;;19.03;70.00;96283.75;4997966;28;20084;-79
2022/06/15 05:46:15;;;;;;;8.48;4.35;;;;;;;19.28;72.35;96280.34;4995664;28;20038;-81
2022/06/15 05:48:42;;;;;;;7.72;3.78;;;;;;;19.67;70.35;96278.53;4972719;28;20507;-81
2022/06/15 05:51:07;;;;;;;10.57;3.88;;;;;;;20.04;66.69;96270.66;4994856;28;20034;-81
2022/06/15 05:53:33;;;;;;;7.07;3.58;;;;;;;20.02;64.19;96270.91;4993528;28;20049;-81
2022/06/15 05:55:59;;;;;;;7.05;3.80;;;;;;;20.36;64.00;96272.25;4992256;28;20034;-81
2022/06/15 05:58:25;;;;;;;7.47;3.45;;;;;;;20.51;64.92;96273.78;4970460;28;20029;-81
2022/06/15 06:00:50;;;;;;;9.60;4.20;;;;;;;20.35;67.79;96265.25;4991440;28;20049;-80
2022/06/15 06:03:16;;;;;;;8.90;4.13;;;;;;;;;;4969533;28;20110;-81
2022/06/15 06:05:42;;;;;;;7.57;4.40;;;;;;;21.24;61.29;96273.78;4970910;28;20085;-81
2022/06/15 06:08:08;;;;;;;10.85;5.65;;;;;;;21.31;63.93;96266.47;4985958;28;20030;-81
2022/06/15 06:10:34;;;;;;;5.85;2.97;;;;;;;21.05;56.04;96269.47;4991013;28;20058;-80
2022/06/15 06:12:59;;;;;;;7.15;3.35;;;;;;;21.04;55.80;96268.66;4989444;28;20073;-81
2022/06/15 06:15:26;;;;;;;5.88;3.70;;;;;;;21.45;54.61;96263.66;4982031;28;20031;-81
2022/06/15 06:17:51;;;;;;;8.13;3.60;;;;;;;21.73;55.24;96269.22;4989330;28;20070;-79
2022/06/15 06:20:17;;;;;;;7.72;2.83;;;;;;;22.13;54.44;96277.47;4979366;28;20208;-81
2022/06/15 06:22:43;;;;;;;7.47;3.72;;;;;;;22.28;51.31;96274.34;4995268;28;20034;-81
2022/06/15 06:25:10;;;;;;;7.63;3.50;;;;;;;22.00;50.15;96272.31;4996617;28;20522;-80
2022/06/15 06:27:36;;;;;;;8.40;3.30;;;;;;;22.07;50.80;96272.22;4989660;28;20860;-81
2022/06/15 06:30:03;;;;;;;5.30;3.00;;;;;;;22.24;50.42;96273.19;4963203;28;20066;-80
2022/06/15 06:32:28;;;;;;;9.60;3.53;;;;;;;22.30;51.08;96272.25;4993123;28;20498;-80
2022/06/15 06:34:55;;;;;;;8.60;4.45;;;;;;;22.32;50.82;96264.78;4993526;28;20086;-81
2022/06/15 06:37:23;;;;;;;6.20;2.92;;;;;;;22.48;49.21;96259.78;4994246;28;20040;-81
2022/06/15 06:39:55;;;;;;;7.20;3.40;;;;;;;22.68;49.44;96270.97;4994177;28;20064;-81
2022/06/15 06:42:21;;;;;;;6.50;3.47;;;;;;;22.88;49.64;96267.09;4994011;28;20040;-80
2022/06/15 06:44:46;;;;;;;10.75;2.75;;;;;;;22.32;48.79;96272.00;4993595;28;20034;-81
2022/06/15 06:47:12;;;;;;;7.95;3.28;;;;;;;22.43;48.59;96268.50;4974294;28;20035;-80
2022/06/15 06:49:38;;;;;;;13.23;3.33;;;;;;;22.57;49.15;96267.25;4991413;28;20148;-80
2022/06/15 06:52:04;;;;;;;7.53;3.22;;;;;;;23.28;47.03;96259.91;4993980;28;20602;-80
2022/06/15 06:54:31;;;;;;;8.85;3.30;;;;;;;23.81;45.54;96254.41;4975770;28;20042;-81
2022/06/15 06:56:57;;;;;;;6.45;3.20;;;;;;;23.05;45.59;96262.66;4989803;28;20043;-80
2022/06/15 06:59:23;;;;;;;7.70;3.03;;;;;;;23.08;45.51;96259.50;4983441;28;20027;-81
2022/06/15 07:01:49;;;;;;;6.43;3.08;;;;;;;23.05;46.01;96262.66;5007357;28;20064;-81
2022/06/15 07:04:16;;;;;;;6.18;2.92;;;;;;;23.40;43.88;96259.03;5001693;28;20065;-81
2022/06/15 07:06:43;;;;;;;6.57;2.72;;;;;;;23.72;44.09;96262.88;4988902;28;20039;-81
2022/06/15 07:09:09;;;;;;;5.88;3.22;;;;;;;23.59;43.70;96259.66;4993490;28;20049;-80
2022/06/15 07:11:36;;;;;;;7.50;3.13;;;;;;;23.62;44.10;96257.31;5002470;28;20053;-80
2022/06/15 07:14:02;;;;;;;6.05;2.70;;;;;;;24.76;43.09;96255.38;5004548;28;20444;-80
2022/06/15 07:16:27;;;;;;;6.60;2.78;;;;;;;24.11;42.10;96254.94;5007351;28;20050;-80
2022/06/15 07:18:53;;;;;;;10.82;3.35;;;;;;;24.24;42.74;96253.78;4992518;28;20650;-81
2022/06/15 07:21:23;;;;;;;4.05;2.42;;;;;;;24.47;40.88;96252.81;4977537;28;20408;-81
2022/06/15 07:23:51;;;;;;;4.43;2.55;;;;;;;24.07;41.97;96247.59;4996300;28;20069;-81
2022/06/15 07:26:21;;;;;;;6.70;2.80;;;;;;;24.13;40.91;96260.06;4997988;28;20038;-81
2022/06/15 07:28:48;;;;;;;7.93;2.83;;;;;;;23.99;40.69;96256.91;4997953;28;20125;-80
2022/06/15 07:31:29;;;;;;;5.88;2.40;;;;;;;24.51;39.48;96263.91;4994548;28;20117;-81
2022/06/15 07:33:56;;;;;;;5.95;2.92;;;;;;;24.12;40.60;96255.75;4990429;28;20038;-81
2022/06/15 07:36:23;;;;;;;6.03;2.80;;;;;;;24.81;39.80;96260.81;4993381;28;20031;-81
2022/06/15 07:38:54;;;;;;;6.50;2.92;;;;;;;25.03;38.80;96267.03;4993780;28;20499;-80
2022/06/15 07:41:21;;;;;;;5.70;2.65;;;;;;;24.30;39.26;96265.44;4984217;28;20065;-81
2022/06/15 07:43:46;;;;;;;5.05;2.30;;;;;;;24.76;38.74;96261.56;5002177;28;20041;-80
2022/06/15 07:46:12;;;;;;;6.05;3.17;;;;;;;24.94;38.77;96263.97;4979402;28;20062;-82
2022/06/15 07:51:35;;;;;;;6.25;2.42;;;;;;;25.80;36.77;96249.91;4996138;28;20041;-81
2022/06/15 07:54:04;;;;;;;5.80;2.63;;;;;;;25.39;38.18;96256.72;4997360;28;20073;-81
2022/06/15 07:56:30;;;;;;;5.85;2.33;;;;;;;25.46;38.43;96254.66;4996055;28;20018;-81
2022/06/15 07:58:56;;;;;;;6.03;2.60;;;;;;;25.66;37.33;96261.31;4994012;28;20026;-81
2022/06/15 08:01:23;;;;;;;5.60;2.65;;;;;;;25.92;37.09;96257.00;4983921;28;20451;-81
2022/06/15 08:03:50;;;;;;;5.70;3.03;;;;;;;26.34;36.10;96257.06;4972187;28;20032;-81
2022/06/15 08:06:16;;;;;;;4.97;2.38;;;;;;;26.78;36.46;96260.34;4990349;28;20080;-81
2022/06/15 08:08:43;;;;;;;7.13;2.72;;;;;;;27.16;35.34;96253.03;4994536;28;20038;-81
2022/06/15 08:11:09;;;;;;;8.35;2.53;;;;;;;26.98;35.21;96265.03;4996469;28;20096;-81
2022/06/15 08:13:35;;;;;;;7.03;2.28;;;;;;;27.35;34.46;96253.34;4991259;28;20019;-81
2022/06/15 08:16:00;;;;;;;6.30;2.50;;;;;;;26.18;35.94;96255.34;4993158;28;20496;-81
2022/06/15 08:18:31;;;;;;;5.30;2.50;;;;;;;27.14;34.32;96259.75;4986003;28;20512;-81
2022/06/15 08:21:01;;;;;;;5.30;2.30;;;;;;;27.10;34.46;96264.84;4989357;28;20142;-81
2022/06/15 08:23:31;;;;;;;4.72;2.55;;;;;;;26.68;33.53;96254.91;4988529;28;20037;-81
2022/06/15 08:26:01;;;;;;;4.18;1.95;;;;;;;26.98;34.24;96259.63;4980917;28;20053;-81
2022/06/15 08:28:31;;;;;;;5.38;2.30;;;;;;;28.20;32.97;96242.13;4989523;28;20045;-81
2022/06/15 08:30:57;;;;;;;4.70;2.55;;;;;;;27.99;31.90;96251.31;4993330;28;20058;-81
2022/06/15 08:33:24;;;;;;;8.55;2.60;;;;;;;28.10;32.38;96252.94;4994805;28;20030;-81
2022/06/15 08:35:51;;;;;;;8.80;3.00;;;;;;;28.70;31.54;96251.28;4983062;28;20093;-81
2022/06/15 08:38:19;;;;;;;4.78;2.17;;;;;;;27.37;33.03;96262.00;4994679;28;20023;-82
2022/06/15 08:40:49;;;;;;;3.97;2.35;;;;;;;28.15;32.01;96247.56;4992676;28;20396;-81
2022/06/15 08:43:24;;;;;;;6.15;2.65;;;;;;;28.69;32.24;96244.25;4992027;28;20030;-81
2022/06/15 08:45:55;;;;;;;4.70;2.25;;;;;;;28.21;31.04;96249.19;4971271;28;20037;-76
2022/06/15 08:48:29;;;;;;;7.40;2.15;;;;;;;28.67;31.28;96252.66;4991233;28;20129;-81
2022/06/15 08:50:59;;;;;;;4.43;2.03;;;;;;;29.14;31.76;96245.22;4993247;28;20034;-79
2022/06/15 08:53:42;;;;;;;6.68;2.20;;;;;;;28.10;32.44;96248.38;4994602;28;20038;-80
2022/06/15 08:56:24;;;;;;;5.00;2.33;;;;;;;28.56;32.38;96256.47;4968664;28;20042;-81
2022/06/15 08:59:01;;;;;;;4.32;2.38;;;;;;;27.69;33.73;96263.69;4994193;28;20026;-80
2022/06/15 09:01:40;;;;;;;5.03;2.28;;;;;;;28.75;31.18;96259.41;4994340;28;20173;-79
2022/06/15 09:04:40;;;;;;;7.88;2.33;;;;;;;28.70;32.18;96262.09;5012091;28;20042;-80
2022/06/15 09:07:40;;;;;;;5.45;2.38;;;;;;;28.22;31.70;96260.81;4991975;28;20468;-80
2022/06/15 09:10:20;;;;;;;8.18;2.72;;;;;;;30.16;29.85;96258.19;4995487;28;20418;-81
2022/06/15 09:13:25;;;;;;;3.70;1.80;;;;;;;29.95;29.67;96259.44;4993928;28;20702;-81
2022/06/15 09:16:22;;;;;;;6.60;2.22;;;;;;;29.91;29.90;96253.75;4971860;28;20091;-80
2022/06/15 09:19:02;;;;;;;5.82;2.13;;;;;;;30.79;28.58;96256.59;4994704;28;20041;-81
2022/06/15 09:21:34;;;;;;;4.85;2.30;;;;;;;30.23;29.46;96250.56;4970631;28;20177;-81
2022/06/15 09:24:09;;;;;;;5.90;2.43;;;;;;;31.42;28.48;96253.69;5008949;28;20516;-81
2022/06/15 09:26:49;;;;;;;3.97;2.28;;;;;;;31.62;28.50;96264.31;4997676;28;20124;-81
2022/06/15 09:29:41;;;;;;;4.63;2.47;;;;;;;31.16;29.61;96261.34;4991072;28;20472;-82
2022/06/15 09:32:11;;;;;;;5.55;2.67;;;;;;;32.36;27.31;96250.13;4980785;28;20034;-79
2022/06/15 09:34:40;;;;;;;6.07;2.58;;;;;;;30.45;29.76;96257.41;4981897;28;20034;-81
2022/06/15 09:37:14;;;;;;;5.47;2.30;;;;;;;30.53;28.98;96252.19;4972375;28;20089;-81
2022/06/15 09:39:40;;;;;;;5.60;2.60;;;;;;;31.31;28.33;96252.97;4988388;28;20034;-81
2022/06/15 09:42:36;;;;;;;4.57;2.25;;;;;;;32.91;28.08;96247.53;4995427;28;20088;-81
2022/06/15 09:45:13;;;;;;;5.95;2.22;;;;;;;31.44;28.57;96256.94;5002044;28;20045;-80
2022/06/15 09:47:57;;;;;;;7.05;2.75;;;;;;;32.09;28.37;96257.09;5003519;28;20045;-82
2022/06/15 09:50:38;;;;;;;4.63;2.45;;;;;;;31.09;28.62;96258.16;4995265;28;20043;-81
2022/06/15 09:53:22;;;;;;;4.07;2.50;;;;;;;31.62;27.74;96249.88;4972577;28;20049;-81
2022/06/15 09:55:53;;;;;;;6.72;2.53;;;;;;;31.46;28.06;96258.25;4988595;28;20636;-81
2022/06/15 09:58:23;;;;;;;6.13;2.13;;;;;;;31.82;27.51;96246.06;4985214;28;20047;-81
2022/06/15 10:00:49;;;;;;;5.82;2.05;;;;;;;31.40;28.62;96253.97;4985412;28;20038;-83
2022/06/15 10:03:38;;;;;;;5.15;2.10;;;;;;;32.68;27.28;96245.78;4993958;28;20444;-81
2022/06/15 10:06:21;;;;;;;4.88;2.63;;;;;;;33.12;25.94;96244.41;4986410;28;20034;-82
2022/06/15 10:08:48;;;;;;;6.68;2.10;;;;;;;32.63;27.41;96241.25;4990407;28;20042;-81
2022/06/15 10:11:24;;;;;;;4.82;2.40;;;;;;;32.66;25.84;96243.34;4965603;28;20128;-81
2022/06/15 10:13:50;;;;;;;5.75;2.50;;;;;;;33.89;25.11;96238.94;4990787;28;20031;-81
2022/06/15 10:16:24;;;;;;;4.90;2.50;;;;;;;34.28;24.96;96242.97;4968322;28;20046;-81
2022/06/15 10:18:53;;;;;;;5.20;2.40;;;;;;;33.11;26.05;96242.81;4999137;28;20678;-81
2022/06/15 10:21:37;;;;;;;6.43;2.50;;;;;;;33.54;25.84;96241.38;4985250;28;20045;-82
2022/06/15 10:24:15;;;;;;;5.75;2.65;;;;;;;34.40;26.07;96239.66;4985712;28;20126;-81
2022/06/15 10:27:05;;;;;;;4.68;2.08;;;;;;;34.38;24.63;96239.16;4989070;28;20039;-81
2022/06/15 10:29:31;;;;;;;4.40;2.42;;;;;;;34.83;25.76;96234.44;4987951;28;20285;-81
2022/06/15 10:32:09;;;;;;;6.03;3.67;;;;;;;34.83;25.07;96237.16;4993470;28;20026;-81
2022/06/15 10:34:45;;;;;;;5.03;3.05;;;;;;;36.06;23.75;96230.88;4989146;28;20038;-81
2022/06/15 10:37:17;;;;;;;3.58;2.38;;;;;;;34.41;24.13;96228.44;4984206;28;20034;-81
2022/06/15 10:39:48;;;;;;;3.95;2.20;;;;;;;34.05;24.49;96228.50;4990075;28;20137;-81
2022/06/15 10:42:27;;;;;;;6.03;2.50;;;;;;;33.78;24.80;96232.13;4989832;28;20519;-81
2022/06/15 10:44:55;;;;;;;4.85;2.25;;;;;;;34.46;24.89;96228.28;4986600;28;20038;-81
2022/06/15 10:47:24;;;;;;;5.10;2.00;;;;;;;33.45;25.20;96232.25;5005208;28;20039;-81
2022/06/15 10:49:55;;;;;;;7.68;2.35;;;;;;;33.86;25.42;96219.66;4989601;28;20018;-81
2022/06/15 10:52:32;;;;;;;4.63;2.25;;;;;;;33.66;25.77;96219.00;4984758;28;20134;-80
2022/06/15 11:04:06;;;;;;;3.70;1.70;;;;;;;33.55;23.01;96226.63;4990386;28;20042;-81
2022/06/15 11:06:46;;;;;;;2.90;1.42;;;;;;;34.05;22.28;96225.78;4991138;28;20058;-81
2022/06/15 11:09:42;;;;;;;3.75;1.80;;;;;;;34.42;22.63;96205.47;4979192;28;20500;-81
2022/06/15 11:12:23;;;;;;;3.88;2.03;;;;;;;33.11;24.30;96221.81;4984854;28;20046;-81
2022/06/15 11:15:03;;;;;;;4.13;1.73;;;;;;;34.68;22.18;96208.34;4990500;28;20038;-80
2022/06/15 11:20:29;;;;;;;5.90;1.70;;;;;;;33.85;21.65;96213.41;4997418;28;20033;-82
2022/06/15 11:23:28;;;;;;;3.50;1.92;;;;;;;32.42;25.26;96221.75;4985766;28;20038;-82
2022/06/15 11:29:33;;;;;;;4.40;1.98;;;;;;;32.86;23.49;96215.75;4989340;28;20038;-79
2022/06/15 11:32:07;;;;;;;3.35;1.80;;;;;;;33.71;24.40;96212.66;4988180;28;20524;-81
2022/06/15 11:34:37;;;;;;;14.02;11.85;;;;;;;34.33;23.44;96204.59;4977916;28;20069;-80
2022/06/15 11:37:09;;;;;;;4.47;2.45;;;;;;;34.55;23.69;96213.91;4995548;28;20543;-80
2022/06/15 11:40:02;;;;;;;5.18;2.28;;;;;;;35.52;22.27;96211.22;4971776;28;20018;-80
2022/06/15 11:42:28;;;;;;;;;;;;;;;34.85;23.25;96204.88;4980732;28;20516;-80
2022/06/15 11:44:54;;;;;;;4.82;1.75;;;;;;;35.42;22.35;96212.28;4997065;28;19910;-81
2022/06/15 11:47:29;;;;;;;4.00;2.03;;;;;;;34.80;23.73;96207.75;4989328;28;20370;-81
2022/06/15 11:50:22;;;;;;;4.45;1.80;;;;;;;33.84;23.42;96211.78;4995101;28;20034;-80
2022/06/15 11:53:21;;;;;;;3.90;2.00;;;;;;;34.73;23.76;96205.47;4999954;28;20042;-80
2022/06/15 11:56:17;;;;;;;4.25;2.05;;;;;;;33.58;24.10;96200.66;5005389;28;20045;-80
2022/06/15 11:59:05;;;;;;;5.55;2.25;;;;;;;34.13;25.25;96199.66;5011364;28;20133;-81
2022/06/15 12:01:36;;;;;;;6.20;1.80;;;;;;;34.59;24.17;96193.84;5031002;28;20492;-80
2022/06/15 12:04:34;;;;;;;7.97;5.22;;;;;;;33.93;24.12;96203.66;5013371;28;20050;-80
2022/06/15 12:07:03;;;;;;;5.45;3.17;;;;;;;33.36;25.75;96203.31;5023184;28;20037;-80
2022/06/15 12:09:53;;;;;;;8.98;2.92;;;;;;;34.23;25.68;96196.66;5017259;28;20038;-79
2022/06/15 12:12:39;;;;;;;3.70;1.90;;;;;;;34.48;26.56;96203.41;5015450;28;20041;-80
2022/06/15 12:15:31;;;;;;;3.58;1.75;;;;;;;33.91;23.94;96195.78;4999894;28;20126;-80
2022/06/15 12:18:39;;;;;;;2.42;1.48;;;;;;;34.57;24.19;96195.28;4994086;28;20034;-81
2022/06/15 12:21:11;;;;;;;3.20;1.60;;;;;;;34.10;23.35;96194.81;4981667;28;20045;-80